createdAt,value
2018-12-29T00:01:17.997Z,21.27
2018-12-29T00:03:45.772Z,22.48
2018-12-29T00:06:13.967Z,22.77
2018-12-29T00:08:42.058Z,21.95
2018-12-29T00:11:10.204Z,20.20
2018-12-29T00:13:37.861Z,21.62
2018-12-29T00:16:05.893Z,19.35
2018-12-29T00:18:33.237Z,20.30
2018-12-29T00:21:01.558Z,20.92
2018-12-29T00:23:30.066Z,20.60
2018-12-29T00:25:58.818Z,22.30
2018-12-29T00:28:26.441Z,19.00
2018-12-29T00:30:55.293Z,19.87
2018-12-29T00:33:23.347Z,19.50
2018-12-29T00:35:51.463Z,19.15
2018-12-29T00:38:20.220Z,19.75
2018-12-29T00:40:48.704Z,22.00
2018-12-29T00:43:16.379Z,22.37
2018-12-29T00:45:45.541Z,20.02
2018-12-29T00:48:14.561Z,19.60
2018-12-29T00:50:42.953Z,19.30
2018-12-29T00:53:10.994Z,21.57
2018-12-29T00:55:38.674Z,22.70
2018-12-29T00:58:09.114Z,20.00
2018-12-29T01:00:37.171Z,21.80
2018-12-29T01:03:05.949Z,20.80
2018-12-29T01:05:33.826Z,19.82
2018-12-29T01:08:02.615Z,20.60
2018-12-29T01:10:31.099Z,20.32
2018-12-29T01:12:58.866Z,21.23
2018-12-29T01:15:26.844Z,20.62
2018-12-29T01:17:54.896Z,20.68
2018-12-29T01:20:22.507Z,20.77
2018-12-29T01:22:50.548Z,21.62
2018-12-29T01:25:19.225Z,20.50
2018-12-29T01:27:48.101Z,21.73
2018-12-29T01:30:16.180Z,19.87
2018-12-29T01:32:43.952Z,17.37
2018-12-29T01:35:11.927Z,21.68
2018-12-29T01:37:40.303Z,19.17
2018-12-29T01:40:08.356Z,19.70
2018-12-29T01:42:36.388Z,17.55
2018-12-29T01:45:04.752Z,18.65
2018-12-29T01:47:33.202Z,19.30
2018-12-29T01:50:01.603Z,18.02
2018-12-29T01:52:29.935Z,18.48
2018-12-29T01:54:58.239Z,17.85
2018-12-29T01:57:26.887Z,17.75
2018-12-29T01:59:55.358Z,18.32
2018-12-29T02:02:24.037Z,21.05
2018-12-29T02:04:52.876Z,19.67
2018-12-29T02:07:21.691Z,20.02
2018-12-29T02:09:50.092Z,20.65
2018-12-29T02:12:18.643Z,20.60
2018-12-29T02:14:46.711Z,21.27
2018-12-29T02:17:14.767Z,20.97
2018-12-29T02:19:43.256Z,21.02
2018-12-29T02:22:11.821Z,20.77
2018-12-29T02:24:40.634Z,19.45
2018-12-29T02:27:09.324Z,21.50
2018-12-29T02:29:37.389Z,18.48
2018-12-29T02:32:06.743Z,20.40
2018-12-29T02:34:34.879Z,18.75
2018-12-29T02:37:03.061Z,18.70
2018-12-29T02:39:31.006Z,18.57
2018-12-29T02:41:59.098Z,19.35
2018-12-29T02:44:27.679Z,19.25
2018-12-29T02:46:55.762Z,18.82
2018-12-29T02:49:24.111Z,20.95
2018-12-29T02:51:51.868Z,19.37
2018-12-29T02:54:20.006Z,21.25
2018-12-29T02:56:48.027Z,18.57
2018-12-29T02:59:16.332Z,20.37
2018-12-29T03:01:45.125Z,20.62
2018-12-29T03:04:13.184Z,19.48
2018-12-29T03:06:42.073Z,18.92
2018-12-29T03:09:10.044Z,20.52
2018-12-29T03:11:38.402Z,19.67
2018-12-29T03:14:06.951Z,19.15
2018-12-29T03:16:35.574Z,19.65
2018-12-29T03:19:05.421Z,21.23
2018-12-29T03:21:35.361Z,20.72
2018-12-29T03:24:04.931Z,19.27
2018-12-29T03:26:33.550Z,18.70
2018-12-29T03:29:03.735Z,18.32
2018-12-29T03:31:32.513Z,20.00
2018-12-29T03:34:01.434Z,17.95
2018-12-29T03:36:30.306Z,19.65
2018-12-29T03:38:58.652Z,19.07
2018-12-29T03:41:27.099Z,19.25
2018-12-29T03:43:55.142Z,19.95
2018-12-29T03:46:23.087Z,17.90
2018-12-29T03:48:52.247Z,17.40
2018-12-29T03:51:19.869Z,19.85
2018-12-29T03:53:50.007Z,18.17
2018-12-29T03:56:18.058Z,19.60
2018-12-29T03:58:48.066Z,20.55
2018-12-29T04:01:18.065Z,19.17
2018-12-29T04:03:46.164Z,19.00
2018-12-29T04:06:16.997Z,17.65
2018-12-29T04:09:22.413Z,20.20
2018-12-29T04:11:50.839Z,20.43
2018-12-29T04:14:19.629Z,18.02
2018-12-29T04:16:49.296Z,20.92
2018-12-29T04:19:17.998Z,16.65
2018-12-29T04:21:46.492Z,19.00
2018-12-29T04:24:15.054Z,18.70
2018-12-29T04:26:47.376Z,20.12
2018-12-29T04:29:14.808Z,18.35
2018-12-29T04:31:43.175Z,19.85
2018-12-29T04:34:13.047Z,18.00
2018-12-29T04:36:43.835Z,19.35
2018-12-29T04:39:13.761Z,17.25
2018-12-29T04:41:41.824Z,19.37
2018-12-29T04:44:10.148Z,19.48
2018-12-29T04:46:37.957Z,17.85
2018-12-29T04:49:05.720Z,19.60
2018-12-29T04:51:34.111Z,19.82
2018-12-29T04:54:01.428Z,20.27
2018-12-29T04:56:29.463Z,19.17
2018-12-29T04:58:59.309Z,19.67
2018-12-29T05:01:27.759Z,19.20
2018-12-29T05:03:56.684Z,19.32
2018-12-29T05:06:24.795Z,20.62
2018-12-29T05:08:53.988Z,18.85
2018-12-29T05:11:21.235Z,19.05
2018-12-29T05:13:49.880Z,17.92
2018-12-29T05:16:18.111Z,18.15
2018-12-29T05:18:46.279Z,18.40
2018-12-29T05:21:15.900Z,18.85
2018-12-29T05:23:44.271Z,19.32
2018-12-29T05:26:12.360Z,17.20
2018-12-29T05:28:41.127Z,18.87
2018-12-29T05:31:10.459Z,17.77
2018-12-29T05:33:39.218Z,18.75
2018-12-29T05:36:07.219Z,19.57
2018-12-29T05:38:35.888Z,17.75
2018-12-29T05:41:04.394Z,19.35
2018-12-29T05:43:32.848Z,18.05
2018-12-29T05:46:01.268Z,18.90
2018-12-29T05:48:30.128Z,20.92
2018-12-29T05:50:57.466Z,18.23
2018-12-29T05:53:26.252Z,20.92
2018-12-29T05:55:54.903Z,18.12
2018-12-29T05:58:23.556Z,20.52
2018-12-29T06:00:51.621Z,19.85
2018-12-29T06:03:20.314Z,19.05
2018-12-29T06:05:48.655Z,20.12
2018-12-29T06:08:17.382Z,22.75
2018-12-29T06:10:45.647Z,20.85
2018-12-29T06:13:13.615Z,20.02
2018-12-29T06:15:42.349Z,21.35
2018-12-29T06:18:10.277Z,21.60
2018-12-29T06:20:37.999Z,22.22
2018-12-29T06:23:06.017Z,23.02
2018-12-29T06:25:34.481Z,22.13
2018-12-29T06:28:03.241Z,21.42
2018-12-29T06:30:31.548Z,21.95
2018-12-29T06:32:59.823Z,22.37
2018-12-29T06:35:27.791Z,20.43
2018-12-29T06:37:58.268Z,20.75
2018-12-29T06:40:25.955Z,19.45
2018-12-29T06:42:54.253Z,21.23
2018-12-29T06:45:22.295Z,21.75
2018-12-29T06:47:50.366Z,18.55
2018-12-29T06:50:18.048Z,22.32
2018-12-29T06:52:46.134Z,21.02
2018-12-29T06:55:15.219Z,20.30
2018-12-29T06:57:43.157Z,21.42
2018-12-29T07:00:12.187Z,20.65
2018-12-29T07:02:41.120Z,22.02
2018-12-29T07:05:10.204Z,21.48
2018-12-29T07:07:39.045Z,21.10
2018-12-29T07:10:08.676Z,20.88
2018-12-29T07:12:37.197Z,21.75
2018-12-29T07:15:05.146Z,18.57
2018-12-29T07:17:33.191Z,19.25
2018-12-29T07:20:01.288Z,21.27
2018-12-29T07:22:29.652Z,22.73
2018-12-29T07:24:57.615Z,20.15
2018-12-29T07:27:26.297Z,20.17
2018-12-29T07:29:54.561Z,22.02
2018-12-29T07:32:22.785Z,21.93
2018-12-29T07:34:50.743Z,19.95
2018-12-29T07:37:18.446Z,18.75
2018-12-29T07:39:46.148Z,19.27
2018-12-29T07:42:13.881Z,22.00
2018-12-29T07:44:42.315Z,23.20
2018-12-29T07:47:11.253Z,21.50
2018-12-29T07:49:38.901Z,20.08
2018-12-29T07:52:06.604Z,19.52
2018-12-29T07:54:35.126Z,20.20
2018-12-29T07:57:02.697Z,20.55
2018-12-29T07:59:30.818Z,21.97
2018-12-29T08:01:58.851Z,21.55
2018-12-29T08:04:26.653Z,22.55
2018-12-29T08:06:54.520Z,21.00
2018-12-29T08:09:23.254Z,22.17
2018-12-29T08:11:51.676Z,20.82
2018-12-29T08:14:25.188Z,21.55
2018-12-29T08:16:56.977Z,22.20
2018-12-29T08:19:24.007Z,23.75
2018-12-29T08:21:52.209Z,21.75
2018-12-29T08:24:20.445Z,22.32
2018-12-29T08:26:48.454Z,22.20
2018-12-29T08:29:16.647Z,24.15
2018-12-29T08:31:44.720Z,22.67
2018-12-29T08:34:12.381Z,22.35
2018-12-29T08:36:40.394Z,22.75
2018-12-29T08:39:09.888Z,20.88
2018-12-29T08:41:42.176Z,23.85
2018-12-29T08:44:24.422Z,25.27
2018-12-29T08:46:50.801Z,22.45
2018-12-29T08:49:23.995Z,21.10
2018-12-29T08:51:58.890Z,23.57
2018-12-29T08:54:30.136Z,22.85
2018-12-29T08:56:57.499Z,24.40
2018-12-29T08:59:25.114Z,25.62
2018-12-29T09:01:54.135Z,24.23
2018-12-29T09:04:22.987Z,22.60
2018-12-29T09:06:51.843Z,23.73
2018-12-29T09:09:20.539Z,20.95
2018-12-29T09:11:48.902Z,23.92
2018-12-29T09:14:16.587Z,23.35
2018-12-29T09:16:46.701Z,23.57
2018-12-29T09:19:15.127Z,25.10
2018-12-29T09:21:44.725Z,25.20
2018-12-29T09:24:12.854Z,24.30
2018-12-29T09:26:41.515Z,23.02
2018-12-29T09:29:11.056Z,23.25
2018-12-29T09:31:39.419Z,23.95
2018-12-29T09:34:09.728Z,23.73
2018-12-29T09:36:38.268Z,24.85
2018-12-29T09:39:06.497Z,23.07
2018-12-29T09:41:35.545Z,19.65
2018-12-29T09:44:03.670Z,21.70
2018-12-29T09:46:31.844Z,22.35
2018-12-29T09:49:00.316Z,23.67
2018-12-29T09:51:28.176Z,22.65
2018-12-29T09:53:56.861Z,23.47
2018-12-29T09:56:25.321Z,19.77
2018-12-29T09:58:55.256Z,22.07
2018-12-29T10:01:25.654Z,23.42
2018-12-29T10:03:54.114Z,20.88
2018-12-29T10:06:23.323Z,22.95
2018-12-29T10:08:51.605Z,20.68
2018-12-29T10:11:21.504Z,21.93
2018-12-29T10:13:50.923Z,20.20
2018-12-29T10:16:19.068Z,21.82
2018-12-29T10:18:50.806Z,22.50
2018-12-29T10:21:20.088Z,23.83
2018-12-29T10:23:48.087Z,24.07
2018-12-29T10:26:16.288Z,22.10
2018-12-29T10:28:44.009Z,23.80
2018-12-29T10:31:13.747Z,25.13
2018-12-29T10:33:42.480Z,24.98
2018-12-29T10:36:10.683Z,21.33
2018-12-29T10:38:44.676Z,22.62
2018-12-29T10:41:13.193Z,23.90
2018-12-29T10:43:45.454Z,22.50
2018-12-29T10:46:13.629Z,25.08
2018-12-29T10:48:41.816Z,24.32
2018-12-29T10:51:10.711Z,23.42
2018-12-29T10:53:39.071Z,24.47
2018-12-29T10:56:08.690Z,25.72
2018-12-29T10:58:40.899Z,25.25
2018-12-29T11:01:09.174Z,24.27
2018-12-29T11:03:38.874Z,23.45
2018-12-29T11:06:07.424Z,25.00
2018-12-29T11:08:35.907Z,21.68
2018-12-29T11:11:04.676Z,21.55
2018-12-29T11:13:38.888Z,23.45
2018-12-29T11:16:08.765Z,24.20
2018-12-29T11:18:37.193Z,23.92
2018-12-29T11:21:05.174Z,25.23
2018-12-29T11:23:33.651Z,23.02
2018-12-29T11:26:02.901Z,23.32
2018-12-29T11:28:31.526Z,25.57
2018-12-29T11:31:00.061Z,23.10
2018-12-29T11:33:28.342Z,24.10
2018-12-29T11:35:56.817Z,22.20
2018-12-29T11:38:24.985Z,24.35
2018-12-29T11:40:54.562Z,23.07
2018-12-29T11:43:25.854Z,25.47
2018-12-29T11:45:54.193Z,21.33
2018-12-29T11:48:22.880Z,20.97
2018-12-29T11:50:51.708Z,23.13
2018-12-29T11:53:20.409Z,24.13
2018-12-29T11:55:48.597Z,23.90
2018-12-29T11:58:17.116Z,23.90
2018-12-29T12:00:45.587Z,22.90
2018-12-29T12:03:14.100Z,23.07
2018-12-29T12:05:42.371Z,23.65
2018-12-29T12:08:10.130Z,22.10
2018-12-29T12:10:40.137Z,21.97
2018-12-29T12:13:08.563Z,25.40
2018-12-29T12:15:37.050Z,21.83
2018-12-29T12:18:05.544Z,22.40
2018-12-29T12:20:34.288Z,21.50
2018-12-29T12:23:02.755Z,24.33
2018-12-29T12:25:31.228Z,22.83
2018-12-29T12:28:00.144Z,23.07
2018-12-29T12:30:29.212Z,21.80
2018-12-29T12:32:56.961Z,22.13
2018-12-29T12:35:25.517Z,24.10
2018-12-29T12:37:54.061Z,23.07
2018-12-29T12:40:24.924Z,23.60
2018-12-29T12:42:53.691Z,24.10
2018-12-29T12:45:21.664Z,24.30
2018-12-29T12:47:49.445Z,23.90
2018-12-29T12:50:17.795Z,21.47
2018-12-29T12:52:48.109Z,22.43
2018-12-29T12:55:17.743Z,23.40
2018-12-29T12:57:46.042Z,22.33
2018-12-29T13:00:14.720Z,22.23
2018-12-29T13:02:43.015Z,20.60
2018-12-29T13:05:11.490Z,21.60
2018-12-29T13:07:40.132Z,23.50
2018-12-29T13:10:08.230Z,22.60
2018-12-29T13:12:38.158Z,22.43
2018-12-29T13:15:07.529Z,21.77
2018-12-29T13:17:36.211Z,21.00
2018-12-29T13:20:05.136Z,21.70
2018-12-29T13:22:33.915Z,21.47
2018-12-29T13:25:02.715Z,21.70
2018-12-29T13:27:31.310Z,21.73
2018-12-29T13:29:59.857Z,22.50
2018-12-29T13:32:28.307Z,24.70
2018-12-29T13:34:56.556Z,22.67
2018-12-29T13:37:24.420Z,21.77
2018-12-29T13:39:53.256Z,23.30
2018-12-29T13:42:22.270Z,22.80
2018-12-29T13:44:50.049Z,24.20
2018-12-29T13:47:18.814Z,31.07
2018-12-29T13:49:48.363Z,23.40
2018-12-29T13:52:16.820Z,21.27
2018-12-29T13:54:56.249Z,20.82
2018-12-29T13:57:24.440Z,21.95
2018-12-29T13:59:53.070Z,22.48
2018-12-29T14:02:21.472Z,23.33
2018-12-29T14:04:49.862Z,21.82
2018-12-29T14:07:18.679Z,24.27
2018-12-29T14:09:47.671Z,23.30
2018-12-29T14:12:15.951Z,22.25
2018-12-29T14:14:44.421Z,22.93
2018-12-29T14:17:12.175Z,21.87
2018-12-29T14:19:41.654Z,22.17
2018-12-29T14:22:10.072Z,22.15
2018-12-29T14:24:38.347Z,22.75
2018-12-29T14:27:07.211Z,22.57
2018-12-29T14:29:34.904Z,23.00
2018-12-29T14:32:04.486Z,22.10
2018-12-29T14:34:32.876Z,22.35
2018-12-29T14:37:01.367Z,21.93
2018-12-29T14:39:29.526Z,23.90
2018-12-29T14:41:57.717Z,20.25
2018-12-29T14:44:26.726Z,22.70
2018-12-29T14:46:55.747Z,22.00
2018-12-29T14:49:24.163Z,23.25
2018-12-29T14:51:52.005Z,20.85
2018-12-29T14:54:20.304Z,22.90
2018-12-29T14:56:49.001Z,21.73
2018-12-29T14:59:17.069Z,22.43
2018-12-29T15:01:46.225Z,21.17
2018-12-29T15:04:13.764Z,21.37
2018-12-29T15:06:42.246Z,22.10
2018-12-29T15:09:10.885Z,23.80
2018-12-29T15:11:39.018Z,22.77
2018-12-29T15:14:06.672Z,22.30
2018-12-29T15:16:36.069Z,22.53
2018-12-29T15:19:04.197Z,20.57
2018-12-29T15:21:33.245Z,21.55
2018-12-29T15:24:01.695Z,20.97
2018-12-29T15:26:29.792Z,20.50
2018-12-29T15:28:57.520Z,21.57
2018-12-29T15:31:26.014Z,22.47
2018-12-29T15:33:54.163Z,20.63
2018-12-29T15:36:23.332Z,21.83
2018-12-29T15:38:51.988Z,22.50
2018-12-29T15:41:20.425Z,22.45
2018-12-29T15:43:48.567Z,25.67
2018-12-29T15:46:16.264Z,23.52
2018-12-29T15:48:50.927Z,23.90
2018-12-29T15:51:14.167Z,22.93
2018-12-29T15:53:42.722Z,22.98
2018-12-29T15:56:10.512Z,22.37
2018-12-29T15:58:38.650Z,21.23
2018-12-29T16:01:07.458Z,22.30
2018-12-29T16:03:35.667Z,22.15
2018-12-29T16:06:05.142Z,21.55
2018-12-29T16:08:33.099Z,22.27
2018-12-29T16:11:01.253Z,24.02
2018-12-29T16:13:29.752Z,22.20
2018-12-29T16:15:58.162Z,21.55
2018-12-29T16:18:28.503Z,21.33
2018-12-29T16:20:57.992Z,23.95
2018-12-29T16:23:27.328Z,23.70
2018-12-29T16:25:56.015Z,23.60
2018-12-29T16:28:25.071Z,23.10
2018-12-29T16:30:55.014Z,21.17
2018-12-29T16:33:24.895Z,22.20
2018-12-29T16:35:53.007Z,22.07
2018-12-29T16:38:21.531Z,22.23
2018-12-29T16:40:57.624Z,21.13
2018-12-29T16:43:19.977Z,20.80
2018-12-29T16:45:48.491Z,20.53
2018-12-29T16:48:17.136Z,22.37
2018-12-29T16:50:47.055Z,21.05
2018-12-29T16:53:14.530Z,19.33
2018-12-29T16:55:43.626Z,20.35
2018-12-29T16:58:12.084Z,18.85
2018-12-29T17:00:40.515Z,20.60
2018-12-29T17:03:09.367Z,21.43
2018-12-29T17:05:38.473Z,22.10
2018-12-29T17:08:06.740Z,22.75
2018-12-29T17:10:35.216Z,20.92
2018-12-29T17:13:04.031Z,21.30
2018-12-29T17:15:32.933Z,22.60
2018-12-29T17:18:01.607Z,24.15
2018-12-29T17:20:30.479Z,21.50
2018-12-29T17:22:59.375Z,22.35
2018-12-29T17:25:28.517Z,21.52
2018-12-29T17:27:57.139Z,20.00
2018-12-29T17:30:26.354Z,22.30
2018-12-29T17:32:54.171Z,22.80
2018-12-29T17:35:23.165Z,21.62
2018-12-29T17:37:51.699Z,21.90
2018-12-29T17:40:19.890Z,22.98
2018-12-29T17:42:47.288Z,20.83
2018-12-29T17:45:16.445Z,18.57
2018-12-29T17:47:44.599Z,21.15
2018-12-29T17:50:12.674Z,20.68
2018-12-29T17:52:40.833Z,20.65
2018-12-29T17:55:09.620Z,22.37
2018-12-29T17:57:38.207Z,20.40
2018-12-29T18:00:06.336Z,22.73
2018-12-29T18:02:35.147Z,23.60
2018-12-29T18:05:04.704Z,21.48
2018-12-29T18:07:32.774Z,19.60
2018-12-29T18:10:01.272Z,19.77
2018-12-29T18:12:29.428Z,20.85
2018-12-29T18:14:57.911Z,21.52
2018-12-29T18:17:26.476Z,20.48
2018-12-29T18:19:56.764Z,20.50
2018-12-29T18:22:25.068Z,19.77
2018-12-29T18:24:54.269Z,19.50
2018-12-29T18:27:23.043Z,21.37
2018-12-29T18:29:51.270Z,20.68
2018-12-29T18:32:19.174Z,19.48
2018-12-29T18:34:48.945Z,20.43
2018-12-29T18:37:17.803Z,18.45
2018-12-29T18:39:46.303Z,19.57
2018-12-29T18:42:14.978Z,19.60
2018-12-29T18:44:43.456Z,21.35
2018-12-29T18:47:11.647Z,21.57
2018-12-29T18:49:39.827Z,20.90
2018-12-29T18:52:08.435Z,21.30
2018-12-29T18:54:36.972Z,21.00
2018-12-29T18:57:05.186Z,20.97
2018-12-29T18:59:33.727Z,21.33
2018-12-29T19:02:02.983Z,20.65
2018-12-29T19:04:31.923Z,21.12
2018-12-29T19:07:00.944Z,22.30
2018-12-29T19:09:29.443Z,21.68
2018-12-29T19:11:57.995Z,21.10
2018-12-29T19:14:26.274Z,22.77
2018-12-29T19:16:56.532Z,21.50
2018-12-29T19:19:24.884Z,20.72
2018-12-29T19:21:52.970Z,22.98
2018-12-29T19:24:21.646Z,22.22
2018-12-29T19:26:49.802Z,21.70
2018-12-29T19:29:17.569Z,23.15
2018-12-29T19:31:47.670Z,21.10
2018-12-29T19:34:16.402Z,20.50
2018-12-29T19:36:45.087Z,22.32
2018-12-29T19:39:13.858Z,21.30
2018-12-29T19:41:46.506Z,19.40
2018-12-29T19:44:13.070Z,20.27
2018-12-29T19:46:41.628Z,19.60
2018-12-29T19:49:09.446Z,18.25
2018-12-29T19:51:37.748Z,19.77
2018-12-29T19:54:06.386Z,18.98
2018-12-29T19:56:34.789Z,19.60
2018-12-29T19:59:04.190Z,21.23
2018-12-29T20:01:32.693Z,19.13
2018-12-29T20:04:03.483Z,20.08
2018-12-29T20:06:31.786Z,20.30
2018-12-29T20:09:00.542Z,20.07
2018-12-29T20:11:29.636Z,20.50
2018-12-29T20:13:58.135Z,17.73
2018-12-29T20:16:26.302Z,16.60
2018-12-29T20:18:55.292Z,18.53
2018-12-29T20:21:23.476Z,19.77
2018-12-29T20:23:52.126Z,20.43
2018-12-29T20:26:20.246Z,16.93
2018-12-29T20:28:48.625Z,17.80
2018-12-29T20:31:23.833Z,17.80
2018-12-29T20:33:52.178Z,15.45
2018-12-29T20:36:20.829Z,15.88
2018-12-29T20:38:48.810Z,15.60
2018-12-29T20:41:17.785Z,15.77
2018-12-29T20:43:47.316Z,16.35
2018-12-29T20:46:15.864Z,15.33
2018-12-29T20:48:44.471Z,14.73
2018-12-29T20:51:14.425Z,13.00
2018-12-29T20:53:42.257Z,14.85
2018-12-29T20:56:11.250Z,17.60
2018-12-29T20:58:39.852Z,15.03
2018-12-29T21:01:18.933Z,14.73
2018-12-29T21:03:47.477Z,15.18
2018-12-29T21:06:15.772Z,14.10
2018-12-29T21:08:44.115Z,15.35
2018-12-29T21:11:13.521Z,15.20
2018-12-29T21:13:42.076Z,13.48
2018-12-29T21:16:09.926Z,13.13
2018-12-29T21:18:41.574Z,15.20
2018-12-29T21:21:10.668Z,14.50
2018-12-29T21:23:39.257Z,13.37
2018-12-29T21:26:08.027Z,12.70
2018-12-29T21:28:36.596Z,13.30
2018-12-29T21:31:06.290Z,13.03
2018-12-29T21:33:35.410Z,12.47
2018-12-29T21:36:04.777Z,14.00
2018-12-29T21:38:33.328Z,11.80
2018-12-29T21:41:01.863Z,11.10
2018-12-29T21:43:32.161Z,11.00
2018-12-29T21:46:01.905Z,14.00
2018-12-29T21:48:30.485Z,11.87
2018-12-29T21:50:58.506Z,13.57
2018-12-29T21:53:27.057Z,11.53
2018-12-29T21:55:55.306Z,11.90
2018-12-29T21:58:23.449Z,10.50
2018-12-29T22:00:51.488Z,11.97
2018-12-29T22:03:20.408Z,10.43
2018-12-29T22:05:49.091Z,9.80
2018-12-29T22:08:17.705Z,11.73
2018-12-29T22:10:46.265Z,10.50
2018-12-29T22:13:15.092Z,10.87
2018-12-29T22:15:44.023Z,10.50
2018-12-29T22:18:12.465Z,10.57
2018-12-29T22:20:40.655Z,10.55
2018-12-29T22:23:09.081Z,10.37
2018-12-29T22:25:37.251Z,10.50
2018-12-29T22:28:05.590Z,10.70
2018-12-29T22:30:35.276Z,10.43
2018-12-29T22:33:03.652Z,11.40
2018-12-29T22:35:32.207Z,10.03
2018-12-29T22:38:01.021Z,10.80
2018-12-29T22:40:29.511Z,10.93
2018-12-29T22:42:58.043Z,11.87
2018-12-29T22:45:26.885Z,10.73
2018-12-29T22:47:55.916Z,10.20
2018-12-29T22:50:24.862Z,11.47
2018-12-29T22:52:53.707Z,10.57
2018-12-29T22:55:23.798Z,9.60
2018-12-29T22:57:52.397Z,11.00
2018-12-29T23:00:39.044Z,11.43
2018-12-29T23:03:07.861Z,10.37
2018-12-29T23:05:36.134Z,11.70
2018-12-29T23:08:04.315Z,10.90
2018-12-29T23:10:32.878Z,10.63
2018-12-29T23:13:01.593Z,10.63
2018-12-29T23:15:29.741Z,11.97
2018-12-29T23:17:58.000Z,10.27
2018-12-29T23:20:26.832Z,11.10
2018-12-29T23:22:56.410Z,10.13
2018-12-29T23:25:24.418Z,11.30
2018-12-29T23:27:54.938Z,9.77
2018-12-29T23:30:23.195Z,10.80
2018-12-29T23:32:52.137Z,11.60
2018-12-29T23:35:21.379Z,11.17
2018-12-29T23:37:49.445Z,12.03
2018-12-29T23:40:19.069Z,13.30
2018-12-29T23:42:47.606Z,13.03
2018-12-29T23:45:15.923Z,10.80
2018-12-29T23:47:44.720Z,13.37
2018-12-29T23:50:13.630Z,12.10
2018-12-29T23:52:46.202Z,10.97
2018-12-29T23:55:17.834Z,12.10
2018-12-29T23:57:46.792Z,11.10
